Aérodrome :
LOGIN :

S'inscrire | Disclaimer

   EN    FR    IT 

 










Légende :    VFR   VFR Marginal   IFR   IFR Intensif   IFR Très Intensif
Visi : 
Plafond : 
>= 8 km
>= 3000ft
5 à 8 km
1000 à 3000 ft
1500m à 5 km
500 à 1000 ft
800 à 1500m
200 à 500 ft
< 800m
< 200 ft
Symboles :   Orages  Brouillard  Fortes neiges  Fortes précipitations  Vent > 20 kt
SIGMETs :   Divers  Orages  Givrage  Turbulence  Onde Orograph.  Cendres Volcan.







- Altitude de l'aérodrome : 584 ft
- Voir les cartes d'approche


LFPV - Villacoublay Vélizy

DERNIER METAR :
  • 180600Z AUTO 22003KT 9999 SCT033 02/01 Q1025 TEMPO 3000 BR

METARs EXPIRÉS :
  • 180530Z AUTO 00000KT 9999 BKN034 03/02 Q1025 TEMPO 3000 BR
  • 180500Z AUTO 19001KT 9999 BKN034 04/03 Q1025 TEMPO 3000 BR
  • 180430Z AUTO VRB02KT 9999 OVC034 04/03 Q1025 NOSIG
  • 180400Z AUTO 24002KT 9999 OVC035 04/03 Q1026 TEMPO 3000 BR
  • 180330Z AUTO 00000KT 9999 OVC035 04/03 Q1026 TEMPO 3000 BR

TAF TAF LFPV
Valide du 18 à 03h jusqu'au 19 à 03h UTC


180200Z 1803/1903 04005KT CAVOK
TEMPO 1803/1807 3000 BR
BECMG 1809/1811 29005KT SCT030
BECMG 1823/1901 -RA BKN010
Pas de NOTAMs connus pour ce terrain.



MET'MAP, la Météo Aéronautique d'un coup d'oeil ! - Copyright ORBIFLY Décembre 2007 - Disclaimer

ORBIFLY MET'MAP TEAM :

Programmation & Développement : Alexandra Zaïnal
Conception & Développement : Baudouin d'Aumeries
Co-Programmation & Développement : Marc-Olivier Méhu
Soutien technique & logistique : Manuel Goepfert

Contact : metmap@orbifly.com




SOURCES & CREDITS :

   NOAA